Time;durP1;ratioP1;P1;durP2;ratioP2;P2;SDS_P1;SDS_P2;PMS_P1;PMS_P2;Temp;Humidity;BMP_temperature;BMP_pressure;BME280_temperature;BME280_humidity;BME280_pressure;Samples;Min_cycle;Max_cycle;Signal;HPM_P1;HPM_P2
2021/06/18 07:10:24;;;;;;;14.27;11.23;;;;;;;;;;10595277;28;20055;-86
2021/06/18 07:15:48;;;;;;;11.82;10.60;;;;;;;;;;10574555;28;20084;-86
2021/06/18 07:20:51;;;;;;;13.15;9.77;;;;;;;;;;10580737;28;20103;-85
2021/06/18 07:26:35;;;;;;;10.88;9.73;;;;;;;;;;10550530;28;20390;-85
2021/06/18 07:31:38;;;;;;;10.70;8.55;;;;;;;;;;10537389;28;20110;-84
2021/06/18 07:36:39;;;;;;;14.35;10.55;;;;;;;;;;10606432;28;20167;-85
2021/06/18 07:41:40;;;;;;;9.40;7.60;;;;;;;;;;10583317;28;20028;-85
2021/06/18 07:46:42;;;;;;;8.98;8.05;;;;;;;;;;10583519;28;20374;-86
2021/06/18 07:51:43;;;;;;;8.18;7.25;;;;;;;;;;10606190;28;20028;-85
2021/06/18 07:56:46;;;;;;;13.02;8.98;;;;;;;;;;10613310;28;20024;-84
2021/06/18 08:01:47;;;;;;;11.90;9.02;;;;;;;;;;10604386;28;20024;-86
2021/06/18 08:06:48;;;;;;;13.15;11.77;;;;;;;;;;10598015;28;20028;-86
2021/06/18 08:11:49;;;;;;;10.63;7.82;;;;;;;;;;10598539;28;20034;-84
2021/06/18 08:16:51;;;;;;;10.40;9.30;;;;;;;;;;10608406;28;20152;-85
2021/06/18 08:21:52;;;;;;;8.82;7.88;;;;;;;;;;10629267;28;20023;-85
2021/06/18 08:26:53;;;;;;;11.60;10.13;;;;;;;;;;10627564;28;20087;-86
2021/06/18 08:31:54;;;;;;;15.20;11.90;;;;;;;;;;10593249;28;20032;-84
2021/06/18 08:36:55;;;;;;;11.35;10.27;;;;;;;;;;10578143;28;20028;-88
2021/06/18 08:41:57;;;;;;;11.80;9.95;;;;;;;;;;10578837;28;20031;-86
2021/06/18 08:46:58;;;;;;;11.68;10.48;;;;;;;;;;10597408;28;20107;-85
2021/06/18 08:51:59;;;;;;;12.02;10.77;;;;;;;;;;10583375;28;20449;-85
2021/06/18 09:18:53;;;;;;;9.20;7.75;;;;;;;;;;10545481;28;20032;-84
2021/06/18 09:23:58;;;;;;;14.65;8.40;;;;;;;;;;10532866;28;20032;-84
2021/06/18 09:29:10;;;;;;;12.52;8.80;;;;;;;;;;10549119;28;20042;-85
2021/06/18 09:34:15;;;;;;;9.23;7.47;;;;;;;;;;10538244;28;20040;-85
2021/06/18 09:39:43;;;;;;;12.38;8.18;;;;;;;;;;10530900;28;20051;-86
2021/06/18 09:44:58;;;;;;;10.38;9.27;;;;;;;;;;10536952;28;20039;-84
2021/06/18 09:49:59;;;;;;;9.98;7.63;;;;;;;;;;10535565;28;20036;-84
2021/06/18 09:55:15;;;;;;;10.80;6.47;;;;;;;;;;10534555;28;20055;-85
2021/06/18 10:00:26;;;;;;;9.32;6.47;;;;;;;;;;10551343;28;20036;-85
2021/06/18 10:05:29;;;;;;;10.07;8.77;;;;;;;;;;10537044;28;20028;-85
2021/06/18 10:10:30;;;;;;;12.32;8.30;;;;;;;;;;10534938;28;20024;-85
2021/06/18 10:15:37;;;;;;;14.18;8.57;;;;;;;;;;10534547;28;20032;-84
2021/06/18 10:20:38;;;;;;;14.35;10.32;;;;;;;;;;10533754;28;20082;-85
2021/06/18 10:25:43;;;;;;;9.55;7.07;;;;;;;;;;10552191;28;20028;-84
2021/06/18 10:30:55;;;;;;;8.48;6.90;;;;;;;;;;10535454;28;20042;-85
2021/06/18 10:36:28;;;;;;;9.43;6.75;;;;;;;;;;10535500;28;20466;-85
2021/06/18 10:41:29;;;;;;;11.10;6.30;;;;;;;;;;10543684;28;20136;-85
2021/06/18 10:46:32;;;;;;;11.30;7.15;;;;;;;;;;10544217;28;20085;-85
2021/06/18 10:51:52;;;;;;;10.55;5.28;;;;;;;;;;10556187;28;20047;-86
2021/06/18 10:57:21;;;;;;;10.38;5.80;;;;;;;;;;10555333;28;20389;-86
2021/06/18 11:02:40;;;;;;;11.65;6.50;;;;;;;;;;10541583;28;20078;-85
2021/06/18 11:08:08;;;;;;;9.40;5.90;;;;;;;;;;10562024;28;20489;-86
2021/06/18 11:19:20;;;;;;;7.97;6.22;;;;;;;;;;10552053;28;20044;-86
2021/06/18 11:24:55;;;;;;;11.05;6.97;;;;;;;;;;10533754;28;20032;-85
2021/06/18 11:35:59;;;;;;;11.00;7.75;;;;;;;;;;10553588;28;20022;-86
2021/06/18 11:46:45;;;;;;;12.65;7.38;;;;;;;;;;10555684;28;20016;-84
2021/06/18 11:51:47;;;;;;;11.60;6.93;;;;;;;;;;10534010;28;20043;-83
2021/06/18 11:56:48;;;;;;;9.45;7.10;;;;;;;;;;10533186;28;20028;-84
2021/06/18 12:01:49;;;;;;;10.70;6.93;;;;;;;;;;10534731;28;20398;-83
2021/06/18 12:06:50;;;;;;;13.30;7.20;;;;;;;;;;10535669;28;20127;-83
2021/06/18 12:12:04;;;;;;;10.18;7.10;;;;;;;;;;10535085;28;20093;-84
2021/06/18 12:17:43;;;;;;;8.60;5.75;;;;;;;;;;10549653;28;20044;-83
2021/06/18 12:22:49;;;;;;;6.22;4.35;;;;;;;;;;10542541;28;20110;-83
2021/06/18 12:27:58;;;;;;;7.80;4.75;;;;;;;;;;10554457;28;20047;-85
2021/06/18 12:33:12;;;;;;;7.32;5.10;;;;;;;;;;10577136;28;20032;-84
2021/06/18 12:38:37;;;;;;;8.23;4.78;;;;;;;;;;10587411;28;20024;-84
2021/06/18 12:43:39;;;;;;;5.80;4.35;;;;;;;;;;10554412;28;20036;-84
2021/06/18 12:48:40;;;;;;;6.22;4.75;;;;;;;;;;10545937;28;20028;-83
2021/06/18 12:53:42;;;;;;;8.75;4.60;;;;;;;;;;10546498;28;20040;-81
2021/06/18 12:58:45;;;;;;;6.60;4.20;;;;;;;;;;10568216;28;20028;-82
2021/06/18 13:03:53;;;;;;;10.65;5.30;;;;;;;;;;10549490;28;20086;-84
2021/06/18 13:08:58;;;;;;;8.25;5.32;;;;;;;;;;10568331;28;20094;-84
2021/06/18 13:14:12;;;;;;;8.88;4.75;;;;;;;;;;10548096;28;20040;-84
2021/06/18 13:19:15;;;;;;;7.25;5.07;;;;;;;;;;10550373;28;20141;-82
2021/06/18 13:24:23;;;;;;;6.32;4.95;;;;;;;;;;10533131;28;20026;-84
2021/06/18 13:29:24;;;;;;;7.35;4.68;;;;;;;;;;10531366;28;20206;-83
2021/06/18 13:34:26;;;;;;;6.03;4.75;;;;;;;;;;10530947;28;20055;-83
2021/06/18 13:39:36;;;;;;;6.70;4.70;;;;;;;;;;10533207;28;20099;-84
2021/06/18 13:44:37;;;;;;;6.50;4.97;;;;;;;;;;10539747;28;20286;-84
2021/06/18 13:49:43;;;;;;;7.00;4.32;;;;;;;;;;10547179;28;20051;-84
2021/06/18 13:54:44;;;;;;;9.57;7.20;;;;;;;;;;10545035;28;20039;-85
2021/06/18 13:59:45;;;;;;;5.95;4.43;;;;;;;;;;10550678;28;20028;-85
2021/06/18 14:04:47;;;;;;;6.20;3.90;;;;;;;;;;10549875;28;20040;-85
2021/06/18 14:09:48;;;;;;;6.65;3.92;;;;;;;;;;10547064;28;20032;-84
2021/06/18 14:15:02;;;;;;;6.28;3.80;;;;;;;;;;10536497;28;20028;-85
2021/06/18 14:20:06;;;;;;;7.55;3.95;;;;;;;;;;10556808;28;20048;-85
2021/06/18 14:25:07;;;;;;;7.40;3.70;;;;;;;;;;10553485;28;20486;-86
2021/06/18 14:30:09;;;;;;;6.15;3.90;;;;;;;;;;10554641;28;20036;-85
2021/06/18 14:35:10;;;;;;;7.25;3.70;;;;;;;;;;10560737;28;20036;-84
2021/06/18 14:40:12;;;;;;;4.15;3.50;;;;;;;;;;10553689;28;20559;-84
2021/06/18 14:45:13;;;;;;;5.47;3.70;;;;;;;;;;10558673;28;20070;-84
2021/06/18 14:50:14;;;;;;;6.05;3.60;;;;;;;;;;10572750;28;20036;-83
2021/06/18 14:55:15;;;;;;;5.22;3.78;;;;;;;;;;10571179;28;20095;-84
2021/06/18 16:19:46;;;;;;;4.85;4.10;;;;;;;;;;10631820;27;20027;-85
2021/06/18 17:21:26;;;;;;;10.25;5.97;;;;;;;;;;10632121;27;20488;-87
2021/06/18 17:32:29;;;;;;;9.27;6.15;;;;;;;;;;10628944;27;20031;-86
2021/06/18 17:43:37;;;;;;;8.07;5.00;;;;;;;;;;10626860;27;20555;-89
2021/06/18 18:11:24;;;;;;;8.65;5.20;;;;;;;;;;10632840;28;20042;-89
2021/06/18 18:22:32;;;;;;;10.07;5.15;;;;;;;;;;10646401;27;20046;-89
2021/06/18 19:25:36;;;;;;;6.60;5.07;;;;;;;;;;10667370;27;20031;-87
2021/06/18 20:33:39;;;;;;;7.63;6.38;;;;;;;;;;10634998;27;20576;-89
